createdAt,value
2023-03-03T00:00:37.266Z,98680.60
2023-03-03T00:03:45.277Z,98678.00
2023-03-03T00:06:53.021Z,98678.80
2023-03-03T00:10:00.910Z,98680.00
2023-03-03T00:13:14.491Z,98681.20
2023-03-03T00:16:30.795Z,98685.60
2023-03-03T00:19:44.907Z,98674.60
2023-03-03T00:22:52.716Z,98674.80
2023-03-03T00:26:01.649Z,98675.60
2023-03-03T00:29:31.778Z,98674.60
2023-03-03T00:32:50.409Z,98669.60
2023-03-03T00:36:00.970Z,98671.40
2023-03-03T00:39:33.252Z,98670.60
2023-03-03T00:42:41.773Z,98663.40
2023-03-03T00:45:52.440Z,98661.60
2023-03-03T00:49:00.268Z,98656.80
2023-03-03T00:52:15.036Z,98657.20
2023-03-03T00:55:22.988Z,98654.00
2023-03-03T00:58:31.429Z,98652.20
2023-03-03T01:01:39.272Z,98649.80
2023-03-03T01:04:52.700Z,98647.40
2023-03-03T01:08:00.332Z,98637.60
2023-03-03T01:11:16.345Z,98635.40
2023-03-03T01:14:24.719Z,98632.80
2023-03-03T01:17:34.440Z,98634.80
2023-03-03T01:20:42.951Z,98633.60
2023-03-03T01:23:50.960Z,98637.80
2023-03-03T01:26:59.477Z,98630.20
2023-03-03T01:30:09.265Z,98631.40
2023-03-03T01:33:17.547Z,98624.20
2023-03-03T01:36:29.578Z,98624.20
2023-03-03T01:39:37.706Z,98619.60
2023-03-03T01:42:45.564Z,98615.80
2023-03-03T01:46:46.185Z,98617.80
2023-03-03T01:50:00.364Z,98618.60
2023-03-03T01:53:16.875Z,98616.40
2023-03-03T01:56:25.853Z,98612.40
2023-03-03T01:59:39.022Z,98611.20
2023-03-03T02:02:48.141Z,98609.20
2023-03-03T02:06:00.895Z,98606.40
2023-03-03T02:09:18.511Z,98608.00
2023-03-03T02:12:33.850Z,98612.80
2023-03-03T02:15:41.689Z,98606.20
2023-03-03T02:18:50.221Z,98606.40
2023-03-03T02:21:58.559Z,98600.00
2023-03-03T02:25:15.044Z,98599.00
2023-03-03T02:28:23.492Z,98596.40
2023-03-03T02:31:33.602Z,98596.20
2023-03-03T02:34:53.663Z,98597.00
2023-03-03T02:38:13.128Z,98591.60
2023-03-03T02:41:33.512Z,98594.60
2023-03-03T02:44:41.762Z,98591.00
2023-03-03T02:47:55.765Z,98587.20
2023-03-03T02:51:03.563Z,98586.00
2023-03-03T02:54:14.546Z,98582.40
2023-03-03T02:57:23.852Z,98578.80
2023-03-03T03:00:32.611Z,98576.40
2023-03-03T03:03:40.817Z,98574.80
2023-03-03T03:06:49.058Z,98574.80
2023-03-03T03:09:57.019Z,98572.20
2023-03-03T03:13:04.947Z,98571.00
2023-03-03T03:16:13.154Z,98573.20
2023-03-03T03:19:21.269Z,98564.20
2023-03-03T03:22:29.105Z,98563.20
2023-03-03T03:25:45.210Z,98561.40
2023-03-03T03:28:53.350Z,98560.60
2023-03-03T03:32:01.415Z,98554.80
2023-03-03T03:35:11.836Z,98563.00
2023-03-03T03:38:20.417Z,98553.60
2023-03-03T03:41:28.153Z,98548.80
2023-03-03T03:44:36.109Z,98544.00
2023-03-03T03:47:44.307Z,98544.80
2023-03-03T03:50:53.981Z,98543.00
2023-03-03T03:54:01.767Z,98542.60
2023-03-03T03:57:10.042Z,98544.20
2023-03-03T04:00:19.582Z,98538.60
2023-03-03T04:03:27.964Z,98539.20
2023-03-03T04:06:36.224Z,98540.80
2023-03-03T04:09:44.337Z,98535.60
2023-03-03T04:12:52.046Z,98533.40
2023-03-03T04:16:00.226Z,98540.20
2023-03-03T04:19:07.941Z,98542.00
2023-03-03T04:22:15.929Z,98542.60
2023-03-03T04:25:24.054Z,98544.40
2023-03-03T04:28:32.217Z,98541.00
2023-03-03T04:31:39.951Z,98534.60
2023-03-03T04:34:53.076Z,98539.00
2023-03-03T04:38:06.758Z,98536.20
2023-03-03T04:41:14.613Z,98535.60
2023-03-03T04:44:22.536Z,98537.60
2023-03-03T04:47:30.790Z,98535.40
2023-03-03T04:50:38.504Z,98534.00
2023-03-03T04:53:46.810Z,98525.40
2023-03-03T04:56:54.678Z,98529.40
2023-03-03T05:00:03.001Z,98529.00
2023-03-03T05:03:13.204Z,98521.00
2023-03-03T05:06:21.148Z,98523.00
2023-03-03T05:09:29.124Z,98521.40
2023-03-03T05:12:37.467Z,98525.40
2023-03-03T05:15:45.329Z,98524.00
2023-03-03T05:18:53.904Z,98522.20
2023-03-03T05:22:02.190Z,98524.60
2023-03-03T05:25:12.780Z,98531.00
2023-03-03T05:28:21.414Z,98522.60
2023-03-03T05:31:29.408Z,98525.00
2023-03-03T05:34:37.362Z,98525.40
2023-03-03T05:37:47.769Z,98523.80
2023-03-03T05:40:56.267Z,98530.20
2023-03-03T05:44:04.196Z,98534.40
2023-03-03T05:47:11.924Z,98535.20
2023-03-03T05:50:20.933Z,98538.40
2023-03-03T05:53:28.997Z,98534.60
2023-03-03T05:56:37.388Z,98537.00
2023-03-03T05:59:45.778Z,98539.00
2023-03-03T06:02:53.652Z,98538.60
2023-03-03T06:06:02.046Z,98541.20
2023-03-03T06:09:09.976Z,98538.60
2023-03-03T06:12:18.053Z,98550.20
2023-03-03T06:15:26.772Z,98544.60
2023-03-03T06:18:35.246Z,98548.00
2023-03-03T06:21:43.334Z,98552.40
2023-03-03T06:24:52.694Z,98551.60
2023-03-03T06:28:00.670Z,98546.00
2023-03-03T06:31:08.736Z,98554.00
2023-03-03T06:34:17.145Z,98552.80
2023-03-03T06:37:25.120Z,98558.00
2023-03-03T06:40:33.023Z,98565.00
2023-03-03T06:43:41.672Z,98567.60
2023-03-03T06:46:49.746Z,98570.20
2023-03-03T06:49:57.720Z,98569.80
2023-03-03T06:53:14.116Z,98573.40
2023-03-03T06:56:25.025Z,98576.80
2023-03-03T06:59:33.155Z,98572.80
2023-03-03T07:02:41.370Z,98575.00
2023-03-03T07:05:49.798Z,98575.60
2023-03-03T07:09:01.293Z,98572.60
2023-03-03T07:12:17.505Z,98578.00
2023-03-03T07:15:33.090Z,98578.00
2023-03-03T07:18:52.290Z,98579.40
2023-03-03T07:22:02.185Z,98589.20
2023-03-03T07:25:23.331Z,98594.40
2023-03-03T07:28:34.180Z,98596.20
2023-03-03T07:31:47.234Z,98596.80
2023-03-03T07:34:58.293Z,98604.80
2023-03-03T07:38:17.954Z,98600.80
2023-03-03T07:41:26.523Z,98601.80
2023-03-03T07:44:40.326Z,98599.20
2023-03-03T07:47:48.284Z,98599.80
2023-03-03T07:50:57.087Z,98596.40
2023-03-03T07:54:29.661Z,98596.60
2023-03-03T07:57:41.504Z,98602.20
2023-03-03T08:01:45.133Z,98600.60
2023-03-03T08:04:55.103Z,98599.40
2023-03-03T08:08:23.628Z,98597.20
2023-03-03T08:11:31.522Z,98601.80
2023-03-03T08:14:41.699Z,98597.20
2023-03-03T08:17:51.492Z,98598.20
2023-03-03T08:21:02.655Z,98597.00
2023-03-03T08:24:11.212Z,98604.80
2023-03-03T08:27:19.529Z,98604.40
2023-03-03T08:30:27.603Z,98614.00
2023-03-03T08:33:35.984Z,98616.60
2023-03-03T08:36:44.370Z,98614.20
2023-03-03T08:39:53.483Z,98617.00
2023-03-03T08:43:01.916Z,98621.40
2023-03-03T08:46:12.334Z,98620.00
2023-03-03T08:49:20.588Z,98619.60
2023-03-03T08:52:28.494Z,98619.80
2023-03-03T08:55:36.354Z,98616.40
2023-03-03T08:59:02.174Z,98621.00
2023-03-03T09:02:11.049Z,98615.80
2023-03-03T09:05:20.152Z,98611.40
2023-03-03T09:08:28.104Z,98612.60
2023-03-03T09:11:36.423Z,98610.00
2023-03-03T09:14:44.346Z,98615.00
2023-03-03T09:17:53.090Z,98616.40
2023-03-03T09:21:01.147Z,98615.00
2023-03-03T09:24:18.727Z,98603.00
2023-03-03T09:27:36.500Z,98615.40
2023-03-03T09:30:50.565Z,98614.60
2023-03-03T09:33:59.595Z,98616.20
2023-03-03T09:37:24.241Z,98608.80
2023-03-03T09:40:57.062Z,98610.20
2023-03-03T09:45:01.742Z,98609.20
2023-03-03T09:48:39.575Z,98610.40
2023-03-03T09:52:13.445Z,98600.80
2023-03-03T09:55:49.312Z,98600.60
2023-03-03T09:59:14.696Z,98600.60
2023-03-03T10:02:39.924Z,98602.80
2023-03-03T10:06:00.888Z,98599.00
2023-03-03T10:09:38.757Z,98601.00
2023-03-03T10:13:00.214Z,98602.40
2023-03-03T10:16:32.980Z,98598.80
2023-03-03T10:19:52.668Z,98589.00
2023-03-03T10:23:12.582Z,98587.80
2023-03-03T10:26:43.872Z,98589.40
2023-03-03T10:30:08.692Z,98588.80
2023-03-03T10:33:31.432Z,98587.60
2023-03-03T10:37:01.828Z,98581.80
2023-03-03T10:40:24.707Z,98582.00
2023-03-03T10:43:57.950Z,98577.00
2023-03-03T10:47:32.867Z,98571.20
2023-03-03T10:50:56.111Z,98568.20
2023-03-03T10:54:22.622Z,98563.60
2023-03-03T10:57:42.730Z,98565.00
2023-03-03T11:01:00.605Z,98564.40
2023-03-03T11:04:41.647Z,98558.00
2023-03-03T11:07:59.083Z,98556.00
2023-03-03T11:11:19.809Z,98550.80
2023-03-03T11:14:39.315Z,98554.60
2023-03-03T11:18:11.019Z,98547.40
2023-03-03T11:21:27.917Z,98547.60
2023-03-03T11:25:03.353Z,98543.80
2023-03-03T11:28:27.869Z,98533.80
2023-03-03T11:31:49.294Z,98532.20
2023-03-03T11:35:18.646Z,98531.40
2023-03-03T11:39:01.234Z,98534.40
2023-03-03T11:42:23.818Z,98527.60
2023-03-03T11:45:43.371Z,98524.00
2023-03-03T11:49:03.788Z,98518.60
2023-03-03T11:52:33.454Z,98510.80
2023-03-03T11:55:46.466Z,98502.40
2023-03-03T11:59:15.353Z,98501.60
2023-03-03T12:02:56.509Z,98494.60
2023-03-03T12:06:23.444Z,98491.80
2023-03-03T12:09:46.776Z,98490.80
2023-03-03T12:13:04.307Z,98487.40
2023-03-03T12:16:23.913Z,98476.00
2023-03-03T12:19:43.066Z,98474.40
2023-03-03T12:23:13.414Z,98467.60
2023-03-03T12:26:31.320Z,98467.40
2023-03-03T12:29:54.319Z,98471.20
2023-03-03T12:33:29.044Z,98476.80
2023-03-03T12:37:05.489Z,98478.80
2023-03-03T12:40:20.220Z,98480.60
2023-03-03T12:43:49.976Z,98480.00
2023-03-03T12:47:07.752Z,98477.60
2023-03-03T12:50:37.628Z,98474.40
2023-03-03T12:54:15.720Z,98476.00
2023-03-03T12:57:40.298Z,98478.60
2023-03-03T13:01:01.630Z,98475.40
2023-03-03T13:04:21.392Z,98473.80
2023-03-03T13:07:39.605Z,98473.80
2023-03-03T13:10:58.176Z,98471.60
2023-03-03T13:14:18.515Z,98472.60
2023-03-03T13:17:35.613Z,98471.40
2023-03-03T13:20:55.498Z,98470.40
2023-03-03T13:24:08.724Z,98464.40
2023-03-03T13:27:21.675Z,98458.00
2023-03-03T13:30:35.619Z,98462.80
2023-03-03T13:33:51.578Z,98460.80
2023-03-03T13:37:07.227Z,98450.00
2023-03-03T13:40:27.196Z,98451.60
2023-03-03T13:43:45.981Z,98450.80
2023-03-03T13:47:09.096Z,98444.20
2023-03-03T13:50:29.497Z,98445.80
2023-03-03T13:53:51.137Z,98451.80
2023-03-03T13:57:27.306Z,98445.80
2023-03-03T14:01:02.426Z,98450.80
2023-03-03T14:04:22.305Z,98441.00
2023-03-03T14:07:35.323Z,98445.40
2023-03-03T14:10:55.443Z,98440.80
2023-03-03T14:14:22.545Z,98437.60
2023-03-03T14:17:39.725Z,98426.80
2023-03-03T14:20:52.786Z,98423.20
2023-03-03T14:24:09.540Z,98432.60
2023-03-03T14:27:35.287Z,98429.40
2023-03-03T14:30:45.697Z,98424.60
2023-03-03T14:34:11.251Z,98427.20
2023-03-03T14:37:29.562Z,98426.60
2023-03-03T14:40:42.944Z,98426.20
2023-03-03T14:44:02.536Z,98422.00
2023-03-03T14:47:28.861Z,98423.20
2023-03-03T14:50:42.365Z,98423.60
2023-03-03T14:53:53.209Z,98422.00
2023-03-03T14:57:08.791Z,98420.60
2023-03-03T15:00:36.562Z,98423.80
2023-03-03T15:03:52.624Z,98424.80
2023-03-03T15:07:15.286Z,98425.20
2023-03-03T15:10:36.964Z,98430.40
2023-03-03T15:13:44.959Z,98425.80
2023-03-03T15:16:53.107Z,98430.20
2023-03-03T15:20:20.190Z,98429.60
2023-03-03T15:23:56.398Z,98433.40
2023-03-03T15:27:11.405Z,98428.20
2023-03-03T15:30:35.165Z,98431.80
2023-03-03T15:34:00.629Z,98432.60
2023-03-03T15:37:27.854Z,98435.60
2023-03-03T15:40:46.749Z,98430.40
2023-03-03T15:44:07.021Z,98429.40
2023-03-03T15:47:41.416Z,98433.60
2023-03-03T15:51:04.918Z,98434.40
2023-03-03T15:54:31.420Z,98436.60
2023-03-03T15:57:55.561Z,98431.60
2023-03-03T16:01:17.136Z,98437.60
2023-03-03T16:04:30.820Z,98445.20
2023-03-03T16:07:53.328Z,98447.80
2023-03-03T16:11:12.208Z,98446.20
2023-03-03T16:14:50.008Z,98447.00
2023-03-03T16:18:08.908Z,98450.80
2023-03-03T16:21:35.912Z,98456.20
2023-03-03T16:25:00.020Z,98457.80
2023-03-03T16:28:17.476Z,98461.60
2023-03-03T16:31:34.152Z,98462.80
2023-03-03T16:34:56.694Z,98463.20
2023-03-03T16:38:11.558Z,98461.80
2023-03-03T16:41:30.570Z,98465.80
2023-03-03T16:44:57.646Z,98469.00
2023-03-03T16:48:21.155Z,98468.40
2023-03-03T16:51:47.344Z,98473.60
2023-03-03T16:55:04.477Z,98470.60
2023-03-03T16:58:32.433Z,98474.20
2023-03-03T17:01:52.292Z,98477.80
2023-03-03T17:05:13.195Z,98479.00
2023-03-03T17:09:26.687Z,98491.40
2023-03-03T17:13:00.608Z,98488.20
2023-03-03T17:16:21.063Z,98486.80
2023-03-03T17:19:57.784Z,98486.80
2023-03-03T17:23:31.376Z,98495.20
2023-03-03T17:26:58.563Z,98501.80
2023-03-03T17:30:22.320Z,98497.40
2023-03-03T17:33:55.733Z,98500.80
2023-03-03T17:37:21.980Z,98497.00
2023-03-03T17:40:54.379Z,98498.00
2023-03-03T17:44:13.496Z,98493.60
2023-03-03T17:47:41.922Z,98496.60
2023-03-03T17:51:32.055Z,98501.80
2023-03-03T17:55:15.546Z,98497.80
2023-03-03T17:58:53.412Z,98495.80
2023-03-03T18:06:27.209Z,98508.60
2023-03-03T18:13:45.566Z,98516.40
2023-03-03T18:17:46.500Z,98512.80
2023-03-03T18:21:08.900Z,98512.20
2023-03-03T18:24:36.545Z,98513.40
2023-03-03T18:27:45.763Z,98519.00
2023-03-03T18:31:03.216Z,98518.80
2023-03-03T18:34:32.865Z,98517.00
2023-03-03T18:37:47.741Z,98525.80
2023-03-03T18:41:01.042Z,98523.00
2023-03-03T18:44:31.565Z,98521.60
2023-03-03T18:48:09.225Z,98519.80
2023-03-03T18:52:14.989Z,98521.60
2023-03-03T18:55:41.333Z,98522.40
2023-03-03T18:58:54.870Z,98527.60
2023-03-03T19:02:26.335Z,98527.00
2023-03-03T19:05:54.303Z,98527.20
2023-03-03T19:09:04.171Z,98526.00
2023-03-03T19:12:17.390Z,98522.20
2023-03-03T19:16:02.005Z,98533.60
2023-03-03T19:19:19.807Z,98531.80
2023-03-03T19:22:32.142Z,98529.20
2023-03-03T19:25:44.422Z,98531.20
2023-03-03T19:29:03.354Z,98536.80
2023-03-03T19:32:38.397Z,98537.20
2023-03-03T19:36:03.442Z,98542.20
2023-03-03T19:39:44.482Z,98537.40
2023-03-03T19:43:10.163Z,98542.80
2023-03-03T19:46:42.034Z,98540.20
2023-03-03T19:50:11.052Z,98536.40
2023-03-03T19:53:36.580Z,98542.60
2023-03-03T19:56:52.045Z,98539.20
2023-03-03T20:00:08.808Z,98542.00
2023-03-03T20:04:14.232Z,98540.40
2023-03-03T20:07:41.900Z,98537.40
2023-03-03T20:10:58.296Z,98529.00
2023-03-03T20:14:21.387Z,98538.40
2023-03-03T20:18:03.750Z,98542.40
2023-03-03T20:21:24.638Z,98537.40
2023-03-03T20:25:00.687Z,98535.60
2023-03-03T20:28:39.154Z,98540.00
2023-03-03T20:31:56.730Z,98546.00
2023-03-03T20:35:23.433Z,98543.40
2023-03-03T20:38:44.694Z,98548.40
2023-03-03T20:42:10.472Z,98542.20
2023-03-03T20:45:42.902Z,98539.80
2023-03-03T20:49:20.475Z,98540.80
2023-03-03T20:52:42.538Z,98545.60
2023-03-03T20:56:03.152Z,98545.60
2023-03-03T20:59:25.735Z,98548.20
2023-03-03T21:02:42.599Z,98551.40
2023-03-03T21:06:04.323Z,98549.20
2023-03-03T21:09:28.347Z,98547.40
2023-03-03T21:12:36.689Z,98545.20
2023-03-03T21:15:44.789Z,98551.20
2023-03-03T21:19:03.461Z,98548.20
2023-03-03T21:22:13.015Z,98543.40
2023-03-03T21:25:49.137Z,98546.80
2023-03-03T21:29:06.198Z,98544.60
2023-03-03T21:32:34.395Z,98543.60
2023-03-03T21:36:02.359Z,98545.60
2023-03-03T21:42:46.908Z,98552.40
2023-03-03T21:45:54.769Z,98554.20
2023-03-03T21:49:02.737Z,98555.60
2023-03-03T21:52:11.941Z,98559.40
2023-03-03T21:55:20.645Z,98564.00
2023-03-03T21:58:28.504Z,98565.40
2023-03-03T22:01:38.249Z,98561.20
2023-03-03T22:04:46.224Z,98557.60
2023-03-03T22:07:54.413Z,98553.60
2023-03-03T22:11:02.083Z,98554.20
2023-03-03T22:14:10.625Z,98553.60
2023-03-03T22:17:18.815Z,98561.80
2023-03-03T22:20:26.752Z,98559.00
2023-03-03T22:23:34.959Z,98570.20
2023-03-03T22:26:42.941Z,98569.40
2023-03-03T22:29:50.892Z,98571.40
2023-03-03T22:32:58.863Z,98571.80
2023-03-03T22:36:08.435Z,98569.00
2023-03-03T22:39:16.433Z,98568.60
2023-03-03T22:42:25.148Z,98572.00
2023-03-03T22:45:33.062Z,98570.00
2023-03-03T22:48:41.368Z,98573.40
2023-03-03T22:51:49.450Z,98572.60
2023-03-03T22:54:58.978Z,98574.60
2023-03-03T22:58:09.462Z,98573.40
2023-03-03T23:01:17.719Z,98572.60
2023-03-03T23:04:25.703Z,98575.40
2023-03-03T23:07:34.231Z,98577.20
2023-03-03T23:10:43.038Z,98574.40
2023-03-03T23:13:50.888Z,98576.80
2023-03-03T23:16:58.742Z,98568.60
2023-03-03T23:20:07.862Z,98571.00
2023-03-03T23:23:15.664Z,98566.40
2023-03-03T23:26:23.786Z,98567.80
2023-03-03T23:29:31.711Z,98564.40
2023-03-03T23:32:39.521Z,98559.40
2023-03-03T23:35:47.364Z,98558.80
2023-03-03T23:38:55.241Z,98556.40
2023-03-03T23:42:04.132Z,98563.60
2023-03-03T23:45:14.966Z,98566.00
2023-03-03T23:48:22.900Z,98565.40
2023-03-03T23:51:31.130Z,98566.00
2023-03-03T23:54:39.382Z,98565.20
2023-03-03T23:57:47.238Z,98562.60
